Time;durP1;ratioP1;P1;durP2;ratioP2;P2;SDS_P1;SDS_P2;PMS_P1;PMS_P2;Temp;Humidity;BMP_temperature;BMP_pressure;BME280_temperature;BME280_humidity;BME280_pressure;Samples;Min_cycle;Max_cycle;Signal;HPM_P1;HPM_P2
2021/12/05 00:18:12;;;;;;;16.00;7.37;;;4.00;97.30;;;;;;4959566;28;20441;-82
2021/12/05 00:24:01;;;;;;;9.87;6.07;;;4.00;97.30;;;;;;4960223;29;20819;-82
2021/12/05 00:26:18;;;;;;;14.50;6.10;;;4.00;97.30;;;;;;4957302;28;20474;-82
2021/12/05 00:29:04;;;;;;;13.25;6.30;;;4.00;97.30;;;;;;4958225;28;20514;-82
2021/12/05 01:15:28;;;;;;;7.47;4.37;;;4.00;97.30;;;;;;4957385;28;20937;-80
2021/12/05 01:18:05;;;;;;;8.33;5.17;;;4.00;97.30;;;;;;4957885;28;20171;-81
2021/12/05 01:20:37;;;;;;;9.70;4.83;;;4.00;97.30;;;;;;4958441;29;20414;-81
2021/12/05 01:23:11;;;;;;;9.37;4.77;;;4.00;97.30;;;;;;4956330;29;20784;-81
2021/12/05 01:31:13;;;;;;;8.43;4.87;;;4.10;97.30;;;;;;4956687;28;20493;-81
2021/12/05 01:36:12;;;;;;;9.90;5.20;;;4.10;97.30;;;;;;4956649;28;20445;-80
2021/12/05 01:44:26;;;;;;;10.77;5.57;;;4.10;97.30;;;;;;4956294;28;20403;-82
2021/12/05 01:54:39;;;;;;;6.77;4.50;;;4.20;97.30;;;;;;4958351;28;20414;-82
2021/12/05 02:29:58;;;;;;;13.70;6.33;;;4.30;97.30;;;;;;4946966;28;20421;-82
2021/12/05 02:40:23;;;;;;;14.50;6.83;;;4.40;97.30;;;;;;4958958;29;20170;-82
2021/12/05 02:43:07;;;;;;;10.97;6.53;;;4.40;97.30;;;;;;4957830;29;20435;-81
2021/12/05 02:45:34;;;;;;;13.13;6.40;;;4.40;97.30;;;;;;4957213;28;20439;-81
2021/12/05 02:48:00;;;;;;;9.70;5.60;;;4.50;97.30;;;;;;4956724;29;20430;-79
2021/12/05 02:50:29;;;;;;;12.50;5.77;;;4.50;97.30;;;;;;4957898;28;20415;-80
2021/12/05 02:53:01;;;;;;;11.70;5.53;;;4.50;97.30;;;;;;4956889;29;20246;-82
2021/12/05 02:55:41;;;;;;;10.20;5.30;;;4.50;97.30;;;;;;4956893;28;20429;-82
2021/12/05 03:01:10;;;;;;;8.07;4.70;;;4.60;97.30;;;;;;4950429;28;20439;-82
2021/12/05 03:03:36;;;;;;;11.10;5.30;;;4.60;97.30;;;;;;4956750;29;20422;-82
2021/12/05 03:06:17;;;;;;;10.17;4.97;;;4.60;97.30;;;;;;4956344;28;20442;-82
2021/12/05 03:08:45;;;;;;;12.17;4.87;;;4.60;97.30;;;;;;4957708;29;20182;-82
2021/12/05 03:11:10;;;;;;;13.03;5.20;;;4.60;97.30;;;;;;4955329;28;20418;-81
2021/12/05 03:13:40;;;;;;;9.47;4.90;;;4.60;97.30;;;;;;4959733;28;20461;-80
2021/12/05 03:16:06;;;;;;;11.27;5.37;;;4.60;97.30;;;;;;4959533;28;20207;-80
2021/12/05 03:18:32;;;;;;;9.80;5.10;;;4.60;97.30;;;;;;4958682;29;20954;-81
2021/12/05 03:21:00;;;;;;;11.20;5.23;;;4.60;97.30;;;;;;4959059;29;20434;-81
2021/12/05 03:23:30;;;;;;;14.63;5.77;;;4.60;97.30;;;;;;4959406;29;20194;-82
2021/12/05 03:25:59;;;;;;;10.17;5.40;;;4.60;97.30;;;;;;4959822;28;20496;-81
2021/12/05 03:28:25;;;;;;;14.13;5.30;;;4.60;97.30;;;;;;4960241;29;20431;-80
2021/12/05 03:30:51;;;;;;;10.20;4.63;;;4.70;97.30;;;;;;4960316;29;20423;-82
2021/12/05 03:33:17;;;;;;;7.50;4.77;;;4.70;97.30;;;;;;4958799;29;20901;-81
2021/12/05 03:35:42;;;;;;;9.93;4.60;;;4.70;97.30;;;;;;4958702;28;20435;-81
2021/12/05 03:38:08;;;;;;;11.10;4.20;;;4.80;97.30;;;;;;4959335;29;20409;-81
2021/12/05 03:40:35;;;;;;;13.60;4.70;;;4.80;97.30;;;;;;4959266;29;20569;-80
2021/12/05 03:43:04;;;;;;;7.70;4.20;;;4.80;97.30;;;;;;4959013;29;20183;-81
2021/12/05 03:45:36;;;;;;;11.63;4.23;;;4.80;97.30;;;;;;4959342;28;20435;-82
2021/12/05 03:48:03;;;;;;;12.00;4.60;;;4.80;97.30;;;;;;4960113;29;20423;-81
2021/12/05 03:50:28;;;;;;;9.43;3.80;;;4.80;97.30;;;;;;4959871;29;20498;-81
2021/12/05 03:52:54;;;;;;;19.43;4.03;;;4.80;97.30;;;;;;4959094;29;20496;-82
2021/12/05 03:55:21;;;;;;;8.10;4.37;;;4.80;97.30;;;;;;4959193;29;20237;-80
2021/12/05 03:57:47;;;;;;;14.47;4.57;;;4.90;97.30;;;;;;4958817;28;20983;-80
2021/12/05 04:00:25;;;;;;;6.50;3.67;;;4.90;97.30;;;;;;4959648;29;20431;-82
2021/12/05 04:02:52;;;;;;;11.47;3.43;;;4.90;97.30;;;;;;4959799;29;20171;-79
2021/12/05 04:05:19;;;;;;;6.07;3.20;;;4.90;97.30;;;;;;4957009;29;20935;-82
2021/12/05 04:07:45;;;;;;;4.93;3.30;;;4.80;97.30;;;;;;4957367;28;20480;-80
2021/12/05 04:10:12;;;;;;;6.97;4.13;;;4.80;97.30;;;;;;4957651;29;20921;-81
2021/12/05 04:12:42;;;;;;;7.30;4.10;;;4.80;97.30;;;;;;4957606;29;20462;-81
2021/12/05 04:15:10;;;;;;;8.83;3.60;;;4.80;97.30;;;;;;4958966;28;20848;-82
2021/12/05 04:17:40;;;;;;;7.50;3.30;;;4.80;97.30;;;;;;4959323;28;20426;-81
2021/12/05 04:20:11;;;;;;;6.90;3.43;;;4.80;97.30;;;;;;4959187;29;20430;-81
2021/12/05 04:22:37;;;;;;;13.77;4.23;;;4.80;97.30;;;;;;4958829;28;20415;-82
2021/12/05 04:25:08;;;;;;;8.83;4.50;;;4.80;97.30;;;;;;4956813;29;20995;-81
2021/12/05 04:27:33;;;;;;;6.90;4.40;;;4.80;97.30;;;;;;4957717;28;20199;-81
2021/12/05 04:29:59;;;;;;;11.50;4.70;;;4.80;97.30;;;;;;4958838;29;20430;-81
2021/12/05 04:32:25;;;;;;;9.03;4.27;;;4.80;97.30;;;;;;4957861;29;20218;-80
2021/12/05 04:34:51;;;;;;;10.63;4.50;;;4.80;97.30;;;;;;4958206;29;20194;-81
2021/12/05 04:37:17;;;;;;;12.53;4.93;;;4.70;97.30;;;;;;4959294;28;20195;-79
2021/12/05 04:39:42;;;;;;;8.93;4.17;;;4.70;97.30;;;;;;4957201;29;20633;-80
2021/12/05 04:42:08;;;;;;;6.53;4.30;;;4.70;97.30;;;;;;4957555;29;20426;-81
2021/12/05 04:44:34;;;;;;;10.53;4.40;;;4.70;97.30;;;;;;4958545;29;20179;-81
2021/12/05 04:47:01;;;;;;;6.43;3.90;;;4.70;97.30;;;;;;4959085;28;20450;-81
2021/12/05 04:49:27;;;;;;;11.20;4.50;;;4.70;97.30;;;;;;4957629;29;20712;-81
2021/12/05 04:51:54;;;;;;;5.37;3.93;;;4.70;97.30;;;;;;4957969;29;20439;-82
2021/12/05 04:54:20;;;;;;;6.63;3.40;;;4.70;97.30;;;;;;4958205;29;20470;-81
2021/12/05 04:56:48;;;;;;;10.10;4.30;;;4.70;97.30;;;;;;4957699;28;21002;-81
2021/12/05 04:59:16;;;;;;;7.60;4.57;;;4.60;97.30;;;;;;4957427;29;20968;-81
2021/12/05 05:01:44;;;;;;;7.77;4.27;;;4.60;97.30;;;;;;4957521;29;20423;-81
2021/12/05 05:04:24;;;;;;;11.77;4.10;;;4.60;97.30;;;;;;4957382;29;20451;-81
2021/12/05 05:06:50;;;;;;;10.43;4.50;;;4.60;97.30;;;;;;4956695;28;20455;-81
2021/12/05 05:09:16;;;;;;;8.43;4.50;;;4.50;97.30;;;;;;4956768;29;20419;-81
2021/12/05 05:11:42;;;;;;;12.17;4.37;;;4.50;97.30;;;;;;4957205;29;20453;-81
2021/12/05 05:14:09;;;;;;;12.90;4.50;;;4.50;97.30;;;;;;4956812;29;20462;-80
2021/12/05 05:16:35;;;;;;;14.30;4.50;;;4.50;97.30;;;;;;4956336;28;20207;-80
2021/12/05 05:19:02;;;;;;;10.80;4.10;;;4.50;97.30;;;;;;4956755;29;20430;-81
2021/12/05 05:24:22;;;;;;;11.00;4.60;;;4.50;97.30;;;;;;4957712;28;20446;-82
2021/12/05 05:40:27;;;;;;;11.67;4.60;;;4.30;97.30;;;;;;4958601;29;20390;-82
2021/12/05 05:50:38;;;;;;;11.07;4.27;;;4.30;97.30;;;;;;4958114;28;20429;-81
2021/12/05 05:53:04;;;;;;;10.70;3.00;;;4.30;97.30;;;;;;4957646;29;20446;-80
2021/12/05 05:55:30;;;;;;;9.00;4.53;;;4.30;97.30;;;;;;4956832;28;20442;-80
2021/12/05 05:58:06;;;;;;;12.30;3.90;;;4.20;97.30;;;;;;4956607;29;20422;-81
2021/12/05 06:00:39;;;;;;;9.57;3.87;;;4.20;97.30;;;;;;4956720;29;20661;-81
2021/12/05 06:03:22;;;;;;;16.33;4.87;;;4.20;97.30;;;;;;4957727;28;20403;-79
2021/12/05 06:05:54;;;;;;;8.20;3.93;;;4.20;97.30;;;;;;4956447;28;20466;-80
2021/12/05 06:08:23;;;;;;;9.00;3.97;;;4.20;97.30;;;;;;4955830;29;20427;-81
2021/12/05 06:10:50;;;;;;;9.57;4.20;;;4.20;97.30;;;;;;4956625;29;20430;-81
2021/12/05 06:13:18;;;;;;;8.60;4.13;;;4.10;97.30;;;;;;4955816;29;20472;-81
2021/12/05 06:15:45;;;;;;;18.23;5.73;;;4.10;97.30;;;;;;4956597;28;20450;-80
2021/12/05 06:18:11;;;;;;;11.53;4.07;;;4.10;97.30;;;;;;4956765;29;20454;-81
2021/12/05 06:20:36;;;;;;;10.87;4.20;;;4.10;97.30;;;;;;4957081;29;20940;-81
2021/12/05 06:23:02;;;;;;;12.40;5.00;;;4.10;97.30;;;;;;4956654;29;20520;-82
2021/12/05 06:25:33;;;;;;;10.13;5.03;;;4.00;97.30;;;;;;4956734;28;20235;-81
2021/12/05 06:28:03;;;;;;;9.53;5.20;;;4.00;97.30;;;;;;4957260;29;20191;-81
2021/12/05 06:30:45;;;;;;;10.20;4.20;;;4.00;97.30;;;;;;4956584;29;20510;-81
2021/12/05 06:46:11;;;;;;;8.73;3.73;;;4.00;97.30;;;;;;4957405;28;20438;-80
2021/12/05 06:48:37;;;;;;;7.50;3.50;;;3.90;97.30;;;;;;4959520;29;20186;-81
2021/12/05 06:51:04;;;;;;;9.10;3.93;;;3.90;97.30;;;;;;4958576;29;20423;-80
2021/12/05 06:53:29;;;;;;;8.73;2.90;;;3.90;97.30;;;;;;4958432;29;20463;-80
2021/12/05 06:55:55;;;;;;;6.07;3.20;;;3.90;97.30;;;;;;4960022;28;20602;-80
2021/12/05 06:58:21;;;;;;;7.50;3.23;;;3.80;97.30;;;;;;4960280;29;20181;-81
2021/12/05 07:00:46;;;;;;;9.23;3.17;;;3.80;97.30;;;;;;4958200;29;20179;-80
2021/12/05 07:03:12;;;;;;;6.53;3.20;;;3.80;97.30;;;;;;4959044;29;20272;-81
2021/12/05 07:05:44;;;;;;;7.80;3.77;;;3.80;97.30;;;;;;4959523;28;20187;-80
2021/12/05 07:08:13;;;;;;;13.30;3.60;;;3.80;97.30;;;;;;4960946;29;20629;-81
2021/12/05 07:10:49;;;;;;;9.67;3.60;;;3.80;97.30;;;;;;4960008;29;20481;-79
2021/12/05 07:13:56;;;;;;;9.27;4.80;;;3.90;97.30;;;;;;4961805;29;20460;-80
2021/12/05 07:16:19;;;;;;;4.13;2.87;;;3.80;97.30;;;;;;4961653;28;20443;-81
2021/12/05 07:19:10;;;;;;;4.23;3.17;;;3.80;97.30;;;;;;4959991;29;20967;-81
2021/12/05 07:21:46;;;;;;;11.50;3.43;;;3.80;97.30;;;;;;4960912;28;20481;-82
2021/12/05 07:40:23;;;;;;;10.93;3.10;;;3.90;97.30;;;;;;4960327;29;20390;-81
2021/12/05 07:43:05;;;;;;;12.00;3.37;;;3.90;97.30;;;;;;4959035;29;20454;-81
2021/12/05 07:45:37;;;;;;;4.80;3.20;;;3.90;97.30;;;;;;4958626;28;20426;-81
2021/12/05 07:48:17;;;;;;;8.20;2.90;;;3.90;97.30;;;;;;4959046;29;20509;-81
2021/12/05 07:53:21;;;;;;;4.30;2.90;;;3.90;97.30;;;;;;4959527;28;20836;-81
2021/12/05 07:55:49;;;;;;;6.93;3.23;;;3.90;97.30;;;;;;4959150;28;20419;-81
2021/12/05 08:01:28;;;;;;;9.53;3.40;;;4.00;97.30;;;;;;4960563;28;20434;-80
2021/12/05 08:14:54;;;;;;;13.43;3.13;;;4.10;97.30;;;;;;4960503;29;20390;-81
2021/12/05 08:17:21;;;;;;;9.83;2.87;;;4.10;97.30;;;;;;4958105;28;20446;-81
2021/12/05 08:19:47;;;;;;;6.37;2.80;;;4.10;97.30;;;;;;4957502;29;20411;-81
2021/12/05 08:22:14;;;;;;;5.27;3.20;;;4.20;97.30;;;;;;4957870;29;20439;-81
2021/12/05 08:24:41;;;;;;;4.93;3.00;;;4.20;97.30;;;;;;4957574;29;20525;-79
2021/12/05 08:27:09;;;;;;;7.63;3.07;;;4.20;97.30;;;;;;4958374;28;20443;-81
2021/12/05 08:29:53;;;;;;;5.67;2.87;;;4.20;97.30;;;;;;4958275;29;20425;-80
2021/12/05 08:32:56;;;;;;;4.90;3.17;;;4.20;97.30;;;;;;4957772;29;20407;-81
2021/12/05 08:35:48;;;;;;;13.33;2.90;;;4.20;97.30;;;;;;4959989;28;20434;-80
2021/12/05 08:39:07;;;;;;;6.73;2.90;;;4.30;97.30;;;;;;4959204;29;20839;-81
2021/12/05 08:41:39;;;;;;;4.77;3.13;;;4.30;97.30;;;;;;4958628;28;20788;-81
2021/12/05 08:44:49;;;;;;;8.07;2.67;;;4.30;97.30;;;;;;4957409;29;20419;-79
2021/12/05 09:20:59;;;;;;;5.10;2.73;;;4.60;97.30;;;;;;4957936;29;20481;-81
2021/12/05 09:30:53;;;;;;;7.90;2.97;;;4.70;97.30;;;;;;4957329;28;20509;-80
2021/12/05 10:06:50;;;;;;;6.10;2.60;;;4.80;97.30;;;;;;4956955;28;20505;-81
2021/12/05 10:14:59;;;;;;;7.83;3.30;;;4.90;97.30;;;;;;4957931;29;20431;-79
2021/12/05 10:17:48;;;;;;;3.90;2.60;;;4.90;97.30;;;;;;4958980;28;20500;-80
2021/12/05 10:26:07;;;;;;;5.07;2.53;;;5.00;97.30;;;;;;4956002;29;20407;-81
2021/12/05 10:37:20;;;;;;;11.60;3.03;;;5.10;97.30;;;;;;4959043;28;20435;-80
2021/12/05 10:39:47;;;;;;;7.03;2.20;;;5.20;97.30;;;;;;4959116;29;20493;-80
2021/12/05 10:42:59;;;;;;;6.97;3.10;;;5.20;97.30;;;;;;4957347;29;20458;-80
2021/12/05 10:45:38;;;;;;;8.43;3.00;;;5.20;97.30;;;;;;4956143;29;20434;-80
2021/12/05 10:48:28;;;;;;;9.60;4.10;;;5.30;97.30;;;;;;4958885;28;20418;-82
2021/12/05 10:51:04;;;;;;;8.77;2.90;;;5.30;97.30;;;;;;4958740;28;20403;-80
2021/12/05 10:53:35;;;;;;;6.07;2.73;;;5.30;97.30;;;;;;4957613;29;20458;-81
2021/12/05 10:56:12;;;;;;;6.80;3.03;;;5.30;97.30;;;;;;4955620;28;20443;-79
2021/12/05 10:59:00;;;;;;;3.77;2.60;;;5.30;97.30;;;;;;4955845;29;20622;-78
2021/12/05 11:01:31;;;;;;;11.07;4.07;;;5.30;97.30;;;;;;4954900;29;20425;-79
2021/12/05 11:04:09;;;;;;;5.27;2.70;;;5.30;97.30;;;;;;4955306;29;20921;-80
2021/12/05 11:06:49;;;;;;;6.60;3.03;;;5.30;97.30;;;;;;4955025;28;20478;-81
2021/12/05 11:09:28;;;;;;;15.73;2.73;;;5.40;97.30;;;;;;4957092;29;20417;-81
2021/12/05 11:12:02;;;;;;;10.40;3.30;;;5.40;97.30;;;;;;4955990;29;20403;-80
2021/12/05 11:14:31;;;;;;;8.53;3.40;;;5.50;97.30;;;;;;4959155;28;20450;-80
2021/12/05 11:17:02;;;;;;;8.27;3.10;;;5.50;97.30;;;;;;4956575;28;20849;-80
2021/12/05 11:19:31;;;;;;;10.07;3.80;;;5.60;97.30;;;;;;4959610;29;20419;-81
2021/12/05 11:22:23;;;;;;;6.50;2.97;;;5.80;97.30;;;;;;4957050;29;20411;-80
2021/12/05 11:25:04;;;;;;;7.57;4.07;;;6.10;97.30;;;;;;4956363;28;20991;-81
2021/12/05 11:27:54;;;;;;;6.57;3.63;;;6.60;97.30;;;;;;4956781;28;20446;-82
2021/12/05 11:30:33;;;;;;;10.80;3.40;;;6.90;97.30;;;;;;4957047;29;20411;-80
2021/12/05 11:33:03;;;;;;;11.93;3.50;;;6.80;97.30;;;;;;4957080;28;20454;-81
2021/12/05 11:35:37;;;;;;;12.40;3.70;;;6.70;97.30;;;;;;4960233;28;20787;-81
2021/12/05 11:38:19;;;;;;;9.80;3.07;;;6.60;97.30;;;;;;4960257;29;20517;-81
2021/12/05 11:40:46;;;;;;;3.90;2.60;;;6.70;97.30;;;;;;4959425;29;20426;-81
2021/12/05 11:43:17;;;;;;;3.73;2.30;;;6.70;97.30;;;;;;4959394;29;20430;-81
2021/12/05 11:45:57;;;;;;;8.50;2.87;;;6.70;97.30;;;;;;4959584;28;20474;-80
2021/12/05 11:48:27;;;;;;;11.70;3.60;;;6.60;97.30;;;;;;4959173;29;20418;-80
2021/12/05 11:50:54;;;;;;;6.77;2.90;;;6.70;97.30;;;;;;4958205;29;20956;-80
2021/12/05 11:53:40;;;;;;;3.50;2.80;;;7.00;97.30;;;;;;4958709;29;20466;-81
2021/12/05 11:56:07;;;;;;;5.10;2.47;;;7.10;97.30;;;;;;4958171;28;20439;-81
2021/12/05 11:58:33;;;;;;;8.83;3.03;;;7.20;97.30;;;;;;4957808;29;20426;-81
2021/12/05 12:01:09;;;;;;;9.30;3.00;;;7.30;97.30;;;;;;4958648;29;20435;-81
2021/12/05 12:03:36;;;;;;;4.60;2.70;;;7.60;97.30;;;;;;4957936;29;20430;-81
2021/12/05 12:06:02;;;;;;;10.10;3.60;;;7.90;97.30;;;;;;4959117;28;20529;-81
2021/12/05 12:08:28;;;;;;;10.93;3.47;;;8.10;97.30;;;;;;4958182;29;20415;-81
2021/12/05 12:10:57;;;;;;;5.63;2.67;;;8.40;97.20;;;;;;4958107;29;20493;-81
2021/12/05 12:13:29;;;;;;;4.80;2.57;;;8.30;96.60;;;;;;4958436;29;20211;-81
2021/12/05 12:16:00;;;;;;;6.10;3.27;;;8.40;96.80;;;;;;4958604;28;20506;-81
2021/12/05 12:18:33;;;;;;;6.70;3.40;;;8.70;96.70;;;;;;4958544;29;20969;-80
2021/12/05 12:21:06;;;;;;;9.07;3.07;;;8.90;95.60;;;;;;4958218;29;20484;-81
2021/12/05 12:23:32;;;;;;;6.40;2.30;;;8.90;95.20;;;;;;4958071;29;20423;-81
2021/12/05 12:26:00;;;;;;;10.90;3.53;;;8.90;95.40;;;;;;4958026;28;20483;-80
2021/12/05 12:28:27;;;;;;;4.47;2.90;;;9.00;95.80;;;;;;4959087;28;20434;-80
2021/12/05 12:30:56;;;;;;;5.70;2.90;;;9.20;95.00;;;;;;4958075;29;20865;-81
2021/12/05 12:33:28;;;;;;;16.73;2.90;;;9.00;94.50;;;;;;4957716;29;20465;-80
2021/12/05 12:35:55;;;;;;;8.80;3.00;;;9.00;95.30;;;;;;4957841;28;20427;-81
2021/12/05 12:38:43;;;;;;;6.07;2.30;;;9.30;95.40;;;;;;4956511;29;20797;-80
2021/12/05 12:41:22;;;;;;;14.40;3.40;;;9.40;94.90;;;;;;4957639;29;20421;-79
2021/12/05 12:43:58;;;;;;;4.60;3.03;;;9.50;94.10;;;;;;4957943;28;20682;-80
2021/12/05 12:46:40;;;;;;;6.30;2.60;;;9.10;93.90;;;;;;4958042;28;20460;-80
2021/12/05 12:49:14;;;;;;;7.60;2.63;;;8.90;95.20;;;;;;4957336;29;20442;-80
2021/12/05 12:51:49;;;;;;;4.70;2.33;;;8.80;95.20;;;;;;4958023;29;20427;-81
2021/12/05 12:54:26;;;;;;;4.87;2.93;;;8.50;95.40;;;;;;4960331;29;20460;-81
2021/12/05 12:57:15;;;;;;;6.77;2.40;;;8.40;96.30;;;;;;4960688;28;20469;-80
2021/12/05 13:00:08;;;;;;;6.30;2.63;;;8.40;96.60;;;;;;4957686;29;20454;-81
2021/12/05 13:02:56;;;;;;;7.33;2.53;;;8.60;96.20;;;;;;4957746;29;20459;-81
2021/12/05 13:05:51;;;;;;;9.43;2.57;;;8.90;95.70;;;;;;4957620;29;20419;-81
2021/12/05 13:11:20;;;;;;;8.57;2.47;;;9.10;95.50;;;;;;4958512;29;20961;-81
2021/12/05 13:13:57;;;;;;;7.03;2.83;;;9.10;94.50;;;;;;4956721;29;20569;-81
2021/12/05 13:16:29;;;;;;;6.90;3.80;;;9.10;94.60;;;;;;4956860;28;20785;-81
2021/12/05 13:19:08;;;;;;;10.87;3.40;;;9.10;94.80;;;;;;4956705;29;20422;-80
2021/12/05 13:21:42;;;;;;;9.10;3.70;;;9.20;94.30;;;;;;4957379;29;20422;-81
2021/12/05 13:24:39;;;;;;;27.07;9.67;;;8.90;94.70;;;;;;4957174;29;20469;-80
2021/12/05 13:27:08;;;;;;;43.37;18.33;;;8.90;95.20;;;;;;4957657;28;20450;-80
2021/12/05 13:29:56;;;;;;;9.87;3.57;;;8.90;94.90;;;;;;4956130;29;20444;-81
2021/12/05 13:32:31;;;;;;;10.17;2.67;;;8.80;95.10;;;;;;4956487;29;20411;-80
2021/12/05 13:35:00;;;;;;;5.40;2.80;;;8.80;94.90;;;;;;4956031;29;20431;-80
2021/12/05 13:37:31;;;;;;;10.73;2.60;;;8.80;95.30;;;;;;4956758;28;20442;-79
2021/12/05 13:40:11;;;;;;;5.23;2.27;;;8.60;95.10;;;;;;4955382;29;20430;-80
2021/12/05 13:42:41;;;;;;;9.70;3.27;;;8.50;95.80;;;;;;4956239;29;20426;-78
2021/12/05 13:45:17;;;;;;;5.93;4.03;;;8.60;95.90;;;;;;4956176;29;20427;-79
2021/12/05 13:47:52;;;;;;;6.73;2.77;;;8.60;95.80;;;;;;4957227;28;20818;-80
2021/12/05 13:50:18;;;;;;;10.20;3.30;;;8.40;96.10;;;;;;4957592;29;20423;-80
2021/12/05 13:52:47;;;;;;;7.30;2.97;;;8.30;96.50;;;;;;4959250;28;20451;-81
2021/12/05 13:55:36;;;;;;;6.70;2.80;;;8.20;96.80;;;;;;4957772;28;20179;-81
2021/12/05 13:58:17;;;;;;;13.67;5.10;;;8.00;97.20;;;;;;4958795;28;20788;-81
2021/12/05 14:00:46;;;;;;;5.13;2.97;;;7.90;97.30;;;;;;4957679;29;20465;-81
2021/12/05 14:03:12;;;;;;;3.70;2.70;;;7.90;97.30;;;;;;4957597;29;20489;-81
2021/12/05 14:05:46;;;;;;;8.33;2.80;;;7.60;97.30;;;;;;4958447;28;20501;-80
2021/12/05 14:08:13;;;;;;;5.33;2.50;;;7.60;97.30;;;;;;4956778;29;20411;-81
2021/12/05 14:10:45;;;;;;;6.43;2.60;;;7.50;97.30;;;;;;4958511;28;20411;-80
2021/12/05 14:13:11;;;;;;;14.33;3.90;;;7.50;97.30;;;;;;4958782;28;20461;-80
2021/12/05 14:15:37;;;;;;;16.63;3.93;;;7.50;97.30;;;;;;4956656;28;20447;-79
2021/12/05 14:18:03;;;;;;;5.37;3.40;;;7.40;97.30;;;;;;4957425;29;20462;-81
2021/12/05 14:20:29;;;;;;;5.23;4.60;;;7.40;97.30;;;;;;4955336;29;20571;-81
2021/12/05 14:22:56;;;;;;;9.03;3.93;;;7.40;97.30;;;;;;4955393;29;20186;-81
2021/12/05 14:25:25;;;;;;;6.23;4.00;;;7.40;97.30;;;;;;4955610;29;20477;-81
2021/12/05 14:28:00;;;;;;;6.37;3.40;;;7.50;97.30;;;;;;4955484;28;20454;-81
2021/12/05 14:30:29;;;;;;;6.03;3.10;;;7.60;97.30;;;;;;4955506;29;20458;-81
2021/12/05 14:32:58;;;;;;;9.17;3.87;;;7.50;97.30;;;;;;4955949;29;20489;-81
2021/12/05 14:35:30;;;;;;;11.07;3.90;;;7.50;97.30;;;;;;4955890;29;20501;-80
2021/12/05 14:37:57;;;;;;;12.20;3.67;;;7.40;97.30;;;;;;4956877;29;20454;-80
2021/12/05 14:40:30;;;;;;;6.00;3.00;;;7.40;97.30;;;;;;4956221;29;20414;-79
2021/12/05 14:42:59;;;;;;;5.93;2.80;;;7.30;97.30;;;;;;4950858;29;20561;-79
2021/12/05 14:45:27;;;;;;;4.87;2.47;;;7.30;97.30;;;;;;4952505;28;20421;-79
2021/12/05 14:47:56;;;;;;;12.03;3.43;;;7.20;97.30;;;;;;4952586;28;20779;-79
2021/12/05 14:50:30;;;;;;;6.93;3.03;;;7.10;97.30;;;;;;4950717;28;20521;-79
2021/12/05 14:52:57;;;;;;;3.50;2.60;;;7.00;97.30;;;;;;4950940;28;20461;-79
2021/12/05 14:55:27;;;;;;;7.57;2.63;;;6.90;97.30;;;;;;4950750;28;20866;-80
2021/12/05 14:57:59;;;;;;;8.33;2.87;;;6.90;97.30;;;;;;4950907;29;20840;-79
2021/12/05 15:00:50;;;;;;;9.60;2.83;;;6.80;97.30;;;;;;4951802;29;20913;-79
2021/12/05 15:03:21;;;;;;;6.87;2.80;;;6.70;97.30;;;;;;4951990;29;20429;-79
2021/12/05 15:05:54;;;;;;;13.20;3.40;;;6.70;97.30;;;;;;4952036;28;20414;-79
2021/12/05 15:08:23;;;;;;;6.37;2.80;;;6.60;97.30;;;;;;4953317;28;20403;-80
2021/12/05 15:10:55;;;;;;;5.60;2.60;;;6.50;97.30;;;;;;4954298;29;20425;-78
2021/12/05 15:13:21;;;;;;;5.23;2.97;;;6.40;97.30;;;;;;4952036;29;20458;-79
2021/12/05 15:15:51;;;;;;;8.67;3.00;;;6.40;97.30;;;;;;4953704;28;20419;-79
2021/12/05 15:18:24;;;;;;;10.97;3.67;;;6.30;97.30;;;;;;4953555;29;20940;-79
2021/12/05 15:20:53;;;;;;;7.03;2.47;;;6.20;97.30;;;;;;4953713;29;20830;-79
2021/12/05 15:23:21;;;;;;;10.93;3.20;;;6.10;97.30;;;;;;4951922;29;20423;-79
2021/12/05 15:25:48;;;;;;;13.63;4.17;;;6.10;97.30;;;;;;4953252;28;20553;-79
2021/12/05 15:28:22;;;;;;;4.33;2.87;;;6.00;97.30;;;;;;4953818;29;20455;-80
2021/12/05 15:30:49;;;;;;;8.40;3.40;;;6.00;97.30;;;;;;4955150;29;20485;-80
2021/12/05 15:33:20;;;;;;;6.17;3.40;;;5.90;97.30;;;;;;4954323;29;20510;-79
2021/12/05 15:35:47;;;;;;;7.67;3.00;;;5.90;97.30;;;;;;4954335;28;20845;-80
2021/12/05 15:38:21;;;;;;;8.33;3.80;;;5.80;97.30;;;;;;4954135;29;20477;-79
2021/12/05 15:40:48;;;;;;;8.93;3.23;;;5.80;97.30;;;;;;4955295;29;20415;-79
2021/12/05 15:43:17;;;;;;;6.30;3.40;;;5.80;97.30;;;;;;4953916;29;21007;-79
2021/12/05 15:45:44;;;;;;;11.17;3.90;;;5.70;97.30;;;;;;4953870;28;20424;-79
2021/12/05 15:48:10;;;;;;;10.20;2.90;;;5.70;97.30;;;;;;4954874;29;20419;-79
2021/12/05 15:50:39;;;;;;;5.83;3.80;;;5.70;97.30;;;;;;4954846;29;20445;-79
2021/12/05 15:53:10;;;;;;;6.20;3.23;;;5.60;97.30;;;;;;4955088;29;20569;-79
2021/12/05 15:55:45;;;;;;;6.17;2.80;;;5.60;97.30;;;;;;4953638;28;20999;-79
2021/12/05 15:58:19;;;;;;;11.23;3.20;;;5.60;97.30;;;;;;4956250;28;20411;-79
2021/12/05 16:01:05;;;;;;;8.37;3.27;;;5.50;97.30;;;;;;4972793;28;20449;-79
2021/12/05 16:04:04;;;;;;;5.73;2.87;;;5.40;97.30;;;;;;4972911;28;20432;-77
2021/12/05 16:06:40;;;;;;;8.07;3.30;;;5.40;97.30;;;;;;4974116;28;20437;-79
2021/12/05 16:09:16;;;;;;;5.77;3.20;;;5.40;97.30;;;;;;4973440;28;20422;-80
2021/12/05 16:11:42;;;;;;;7.20;3.10;;;5.30;97.30;;;;;;4972796;28;20422;-79
2021/12/05 16:14:08;;;;;;;5.73;2.80;;;5.30;97.30;;;;;;4972796;28;20454;-79
2021/12/05 16:16:35;;;;;;;14.50;3.67;;;5.40;97.30;;;;;;4974047;28;20955;-80
2021/12/05 16:19:03;;;;;;;6.23;3.13;;;5.30;97.30;;;;;;4972682;28;20220;-80
2021/12/05 16:21:32;;;;;;;4.53;2.80;;;5.30;97.30;;;;;;4973558;28;20541;-79
2021/12/05 16:24:04;;;;;;;8.20;3.93;;;5.30;97.30;;;;;;4973855;28;20429;-79
2021/12/05 16:26:30;;;;;;;19.20;8.47;;;5.30;97.30;;;;;;4973599;28;20461;-79
2021/12/05 16:29:04;;;;;;;22.93;8.27;;;5.30;97.30;;;;;;4972355;28;20466;-79
2021/12/05 16:31:39;;;;;;;8.40;3.40;;;5.20;97.30;;;;;;4964509;28;20431;-79
2021/12/05 16:34:14;;;;;;;10.83;4.07;;;5.20;97.30;;;;;;4953038;28;20458;-80
2021/12/05 16:37:02;;;;;;;12.10;4.90;;;5.20;97.30;;;;;;4953932;29;20434;-78
2021/12/05 16:39:33;;;;;;;5.97;3.50;;;5.20;97.30;;;;;;4952593;29;20438;-80
2021/12/05 16:42:09;;;;;;;19.70;3.60;;;5.20;97.30;;;;;;4952966;29;20450;-79
2021/12/05 16:44:39;;;;;;;6.27;3.27;;;5.20;97.30;;;;;;4953909;28;20502;-79
2021/12/05 16:47:15;;;;;;;15.90;4.17;;;5.20;97.30;;;;;;4953942;28;20434;-78
2021/12/05 16:49:43;;;;;;;7.63;3.47;;;5.10;97.30;;;;;;4952902;29;20423;-78
2021/12/05 16:52:20;;;;;;;13.87;3.60;;;5.10;97.30;;;;;;4952585;28;20430;-79
2021/12/05 16:54:51;;;;;;;7.90;3.77;;;5.10;97.30;;;;;;4953229;28;20473;-79
2021/12/05 16:57:23;;;;;;;6.40;3.87;;;5.10;97.30;;;;;;4954032;28;20842;-79
2021/12/05 16:59:50;;;;;;;8.53;3.90;;;5.10;97.30;;;;;;4952697;29;20859;-79
2021/12/05 17:02:34;;;;;;;11.27;4.10;;;5.00;97.30;;;;;;4953845;29;20411;-79
2021/12/05 17:05:07;;;;;;;6.33;3.50;;;5.00;97.30;;;;;;4952364;29;20829;-79
2021/12/05 17:07:48;;;;;;;10.90;3.60;;;5.00;97.30;;;;;;4952298;28;20445;-79
2021/12/05 17:10:20;;;;;;;7.20;3.37;;;5.00;97.30;;;;;;4954174;29;20945;-79
2021/12/05 17:12:49;;;;;;;10.73;4.00;;;5.00;97.30;;;;;;4952088;29;20434;-80
2021/12/05 17:15:26;;;;;;;6.80;3.70;;;5.00;97.30;;;;;;4952640;29;20826;-79
2021/12/05 17:18:03;;;;;;;8.43;3.77;;;5.00;97.30;;;;;;4954451;28;20446;-78
2021/12/05 17:20:34;;;;;;;12.50;5.00;;;4.90;97.30;;;;;;4955231;29;20399;-79
2021/12/05 17:23:10;;;;;;;11.77;5.93;;;4.90;97.30;;;;;;4954642;29;20423;-79
2021/12/05 17:25:44;;;;;;;13.80;8.13;;;4.90;97.30;;;;;;4957274;28;20466;-82
2021/12/05 17:28:47;;;;;;;12.07;5.10;;;4.80;97.30;;;;;;4958503;29;20515;-81
2021/12/05 17:31:16;;;;;;;119.23;56.10;;;4.80;97.30;;;;;;4951905;28;20774;-81
2021/12/05 17:33:51;;;;;;;16.70;6.13;;;4.80;97.30;;;;;;4959865;29;20466;-81
2021/12/05 17:36:31;;;;;;;7.93;5.30;;;4.80;97.30;;;;;;4959580;28;20435;-81
2021/12/05 17:39:07;;;;;;;7.70;4.30;;;4.70;97.30;;;;;;4959300;29;20411;-82
2021/12/05 17:41:33;;;;;;;9.83;3.93;;;4.70;97.30;;;;;;4957876;29;20419;-82
2021/12/05 17:44:00;;;;;;;15.03;4.37;;;4.70;97.30;;;;;;4958398;29;20433;-81
2021/12/05 17:46:30;;;;;;;11.33;4.37;;;4.60;97.30;;;;;;4958845;28;20641;-81
2021/12/05 17:48:56;;;;;;;6.23;4.40;;;4.60;97.30;;;;;;4958170;29;20494;-81
2021/12/05 17:51:26;;;;;;;8.67;5.07;;;4.60;97.30;;;;;;4957824;29;20965;-83
2021/12/05 17:53:55;;;;;;;9.70;4.80;;;4.60;97.30;;;;;;4958631;29;20450;-81
2021/12/05 17:56:43;;;;;;;9.80;4.33;;;4.60;97.30;;;;;;4957788;28;21108;-81
2021/12/05 18:04:50;;;;;;;18.27;7.50;;;4.60;97.30;;;;;;4959634;29;20397;-81
2021/12/05 18:07:17;;;;;;;16.43;7.40;;;4.60;97.30;;;;;;4958049;28;20446;-82
2021/12/05 18:09:43;;;;;;;14.90;7.47;;;4.60;97.30;;;;;;4959660;28;20442;-82
2021/12/05 18:12:20;;;;;;;13.53;5.97;;;4.50;97.30;;;;;;4957898;29;20415;-82
2021/12/05 18:14:46;;;;;;;11.27;5.10;;;4.50;97.30;;;;;;4957788;29;20485;-82
2021/12/05 18:17:13;;;;;;;12.17;6.10;;;4.50;97.30;;;;;;4956916;28;20451;-80
2021/12/05 18:19:38;;;;;;;18.00;7.07;;;4.50;97.30;;;;;;4958118;29;20430;-82
2021/12/05 18:22:04;;;;;;;30.03;12.80;;;4.50;97.30;;;;;;4958521;29;20418;-83